Time;durP1;ratioP1;P1;durP2;ratioP2;P2;SDS_P1;SDS_P2;PMS_P1;PMS_P2;Temp;Humidity;BMP_temperature;BMP_pressure;BME280_temperature;BME280_humidity;BME280_pressure;Samples;Min_cycle;Max_cycle;Signal;HPM_P1;HPM_P2
2023/07/10 00:00:18;;;;;;;30.85;22.50;;;;;;;21.46;86.14;101268.50;683441;28;1044;-80
2023/07/10 00:00:41;;;;;;;31.58;23.13;;;;;;;21.40;85.95;101257.94;685066;28;858;-80
2023/07/10 00:01:03;;;;;;;29.90;23.15;;;;;;;21.43;86.10;101260.53;684703;28;1215;-80
2023/07/10 00:01:27;;;;;;;28.95;22.73;;;;;;;21.42;85.62;101257.00;690312;28;1265;-80
2023/07/10 00:01:48;;;;;;;27.88;22.33;;;;;;;21.47;85.93;101264.94;687947;28;1313;-81
2023/07/10 00:02:10;;;;;;;29.80;22.03;;;;;;;21.41;86.04;101254.38;685003;28;1114;-79
2023/07/10 00:02:30;;;;;;;31.25;21.98;;;;;;;21.41;85.89;101260.56;679513;29;1374;-80
2023/07/10 00:02:51;;;;;;;31.48;22.15;;;;;;;21.46;85.68;101269.34;684868;28;1100;-80
2023/07/10 00:03:12;;;;;;;29.83;22.17;;;;;;;21.41;85.81;101259.69;682049;29;1132;-80
2023/07/10 00:03:33;;;;;;;27.90;22.80;;;;;;;21.46;85.88;101274.66;685736;28;1124;-80
2023/07/10 00:03:54;;;;;;;29.13;23.10;;;;;;;21.45;85.87;101272.03;679679;29;1959;-80
2023/07/10 00:04:16;;;;;;;29.25;22.98;;;;;;;21.48;85.73;101272.91;682250;28;1407;-81
2023/07/10 00:04:37;;;;;;;28.55;21.95;;;;;;;21.45;85.56;101266.72;687749;28;1278;-80
2023/07/10 00:04:58;;;;;;;26.40;20.75;;;;;;;21.41;85.56;101259.69;687794;28;1119;-81
2023/07/10 00:05:21;;;;;;;27.63;20.70;;;;;;;21.46;85.75;101263.19;687307;28;1120;-80
2023/07/10 00:05:42;;;;;;;27.02;20.70;;;;;;;21.46;85.39;101263.19;681890;29;827;-80
2023/07/10 00:06:02;;;;;;;27.60;21.30;;;;;;;21.41;85.55;101255.25;679568;29;1022;-80
2023/07/10 00:06:23;;;;;;;27.20;21.30;;;;;;;21.41;85.56;101249.94;680101;29;1016;-81
2023/07/10 00:06:45;;;;;;;29.63;22.20;;;;;;;21.46;85.59;101263.19;685430;28;1132;-80
2023/07/10 00:07:06;;;;;;;29.77;22.80;;;;;;;21.46;85.58;101261.38;684839;28;972;-80
2023/07/10 00:07:26;;;;;;;27.73;22.70;;;;;;;21.48;85.44;101266.69;686973;28;1116;-80
2023/07/10 00:07:47;;;;;;;26.25;22.30;;;;;;;21.47;85.44;101262.28;685489;28;1255;-79
2023/07/10 00:08:08;;;;;;;27.60;22.40;;;;;;;21.52;85.36;101273.78;679474;29;1034;-81
2023/07/10 00:08:29;;;;;;;29.60;22.48;;;;;;;21.43;85.34;101257.88;682273;28;1245;-81
2023/07/10 00:08:49;;;;;;;29.27;22.30;;;;;;;21.51;85.35;101269.34;684950;28;1190;-79
2023/07/10 00:09:10;;;;;;;27.48;21.80;;;;;;;21.42;85.45;101248.16;683738;28;1622;-80
2023/07/10 00:09:31;;;;;;;27.73;21.67;;;;;;;21.46;85.43;101256.06;680521;28;1203;-80
2023/07/10 00:09:51;;;;;;;30.40;22.23;;;;;;;21.46;85.26;101258.72;679613;29;1081;-80
2023/07/10 00:10:14;;;;;;;31.02;22.48;;;;;;;21.48;85.43;101256.97;684767;28;1185;-80
2023/07/10 00:10:35;;;;;;;30.17;21.85;;;;;;;21.52;85.18;101270.22;679907;29;831;-80
2023/07/10 00:10:59;;;;;;;28.27;21.55;;;;;;;21.45;85.08;101261.41;682321;29;1322;-80
2023/07/10 00:11:30;;;;;;;26.88;21.20;;;;;;;21.39;85.27;101249.06;682032;28;1433;-80
2023/07/10 00:11:51;;;;;;;28.55;21.73;;;;;;;21.46;85.19;101258.72;679766;29;1050;-80
2023/07/10 00:12:16;;;;;;;28.30;22.05;;;;;;;21.50;85.30;101268.47;687459;28;1274;-80
2023/07/10 00:12:38;;;;;;;29.38;22.00;;;;;;;21.51;85.15;101266.69;687847;28;821;-80
2023/07/10 00:12:58;;;;;;;29.40;21.80;;;;;;;21.42;85.13;101251.72;685040;28;1100;-80
2023/07/10 00:13:21;;;;;;;28.37;21.90;;;;;;;21.45;85.23;101253.47;682065;28;1262;-81
2023/07/10 00:13:42;;;;;;;27.42;22.58;;;;;;;21.50;85.12;101260.50;679843;29;1159;-80
2023/07/10 00:14:19;;;;;;;27.00;22.48;;;;;;;21.54;85.02;101268.44;682051;29;1646;-80
2023/07/10 00:14:40;;;;;;;27.75;22.40;;;;;;;21.44;85.24;101259.63;685145;28;857;-81
2023/07/10 00:15:11;;;;;;;27.73;22.52;;;;;;;21.52;85.37;101263.16;682166;28;1232;-80
2023/07/10 00:15:32;;;;;;;28.48;21.23;;;;;;;21.47;84.99;101252.53;687323;28;1003;-80
2023/07/10 00:15:53;;;;;;;28.45;20.73;;;;;;;21.47;85.04;101257.84;681978;28;1287;-80
2023/07/10 00:16:19;;;;;;;29.77;21.20;;;;;;;21.41;85.12;101255.25;685112;28;1278;-80
2023/07/10 00:16:39;;;;;;;27.93;21.77;;;;;;;21.39;84.92;101248.19;680644;29;1210;-80
2023/07/10 00:17:00;;;;;;;28.00;22.20;;;;;;;21.36;85.33;101246.44;679720;29;1103;-79
2023/07/10 00:17:21;;;;;;;26.38;22.10;;;;;;;21.39;85.23;101258.81;682748;28;1303;-80
2023/07/10 00:17:45;;;;;;;26.10;22.27;;;;;;;21.31;85.19;101254.47;689555;28;1248;-79
2023/07/10 00:18:17;;;;;;;28.90;23.10;;;;;;;21.37;85.51;101262.38;680060;29;1089;-80
2023/07/10 00:18:37;;;;;;;30.52;23.70;;;;;;;21.34;85.41;101258.88;682902;28;835;-81
2023/07/10 00:18:58;;;;;;;32.17;23.05;;;;;;;21.29;85.49;101255.38;688158;28;968;-81
2023/07/10 00:19:19;;;;;;;33.33;23.33;;;;;;;21.36;85.57;101263.28;685355;28;1017;-81
2023/07/10 00:19:41;;;;;;;33.25;23.85;;;;;;;21.28;85.58;101254.50;685641;28;1500;-81
2023/07/10 00:20:12;;;;;;;30.52;24.20;;;;;;;21.34;85.51;101270.34;680206;29;1095;-81
2023/07/10 00:20:33;;;;;;;32.45;23.23;;;;;;;21.35;85.20;101260.63;685572;28;823;-81
2023/07/10 00:20:53;;;;;;;33.08;23.40;;;;;;;21.36;85.21;101267.69;685550;28;1393;-81
2023/07/10 00:21:14;;;;;;;33.87;23.53;;;;;;;21.41;85.37;101271.19;684882;28;1221;-81
2023/07/10 00:21:35;;;;;;;30.13;23.40;;;;;;;21.35;84.96;101257.97;685941;28;1169;-81
2023/07/10 00:21:56;;;;;;;28.45;23.13;;;;;;;21.33;85.04;101257.97;688206;28;1268;-80
2023/07/10 00:22:17;;;;;;;30.30;23.58;;;;;;;21.30;85.16;101262.44;690370;28;1230;-80
2023/07/10 00:22:37;;;;;;;31.83;23.52;;;;;;;21.24;84.97;101250.09;688346;28;792;-81
2023/07/10 00:22:58;;;;;;;31.17;23.37;;;;;;;21.26;85.09;101253.63;688136;28;953;-81
2023/07/10 00:23:19;;;;;;;29.48;23.00;;;;;;;21.31;85.22;101259.78;682627;28;982;-80
2023/07/10 00:23:39;;;;;;;28.95;23.40;;;;;;;21.30;84.99;101268.63;682967;29;845;-80
2023/07/10 00:24:00;;;;;;;31.80;24.10;;;;;;;21.31;85.04;101265.09;680110;29;1976;-81
2023/07/10 00:24:21;;;;;;;30.33;23.93;;;;;;;21.28;85.13;101258.91;685115;28;1195;-81
2023/07/10 00:24:42;;;;;;;29.50;23.75;;;;;;;21.27;85.02;101266.00;691107;28;750;-81
2023/07/10 00:25:03;;;;;;;27.45;23.52;;;;;;;21.21;85.14;101263.41;690826;28;1102;-80
2023/07/10 00:25:24;;;;;;;28.52;24.15;;;;;;;21.20;85.20;101266.94;687799;28;1234;-81
2023/07/10 00:25:45;;;;;;;32.30;25.00;;;;;;;21.23;85.26;101269.56;682602;28;1368;-80
2023/07/10 00:26:19;;;;;;;32.97;24.60;;;;;;;21.25;85.37;101270.44;679935;29;1278;-81
2023/07/10 00:26:42;;;;;;;30.92;23.27;;;;;;;21.27;85.34;101279.25;683035;29;775;-81
2023/07/10 00:27:10;;;;;;;31.13;23.70;;;;;;;21.19;85.36;101259.88;688046;28;1038;-80
2023/07/10 00:27:31;;;;;;;31.15;23.08;;;;;;;21.18;85.14;101259.00;687727;28;1123;-81
2023/07/10 00:27:51;;;;;;;32.57;22.90;;;;;;;21.17;85.50;101254.59;682757;28;1301;-81
2023/07/10 00:28:20;;;;;;;31.85;22.88;;;;;;;21.27;85.09;101268.63;687942;28;1241;-81
2023/07/10 00:28:42;;;;;;;28.88;23.25;;;;;;;21.26;85.24;101282.81;685510;28;809;-81
2023/07/10 00:29:14;;;;;;;28.30;23.50;;;;;;;21.24;85.09;101279.28;688079;28;1005;-80
2023/07/10 00:29:35;;;;;;;29.65;23.23;;;;;;;21.16;85.44;101270.53;685515;28;2071;-82
2023/07/10 00:29:55;;;;;;;29.90;23.43;;;;;;;21.11;85.38;101254.63;688182;28;933;-81
2023/07/10 00:30:22;;;;;;;31.48;23.83;;;;;;;21.13;85.32;101266.13;687895;28;1086;-82
2023/07/10 00:30:45;;;;;;;31.17;23.88;;;;;;;21.18;85.52;101277.59;688262;28;847;-81
2023/07/10 00:31:07;;;;;;;33.03;24.10;;;;;;;21.14;85.51;101269.66;688105;28;1191;-81
2023/07/10 00:31:28;;;;;;;32.50;24.02;;;;;;;21.13;85.46;101263.47;686693;28;1105;-81
2023/07/10 00:31:48;;;;;;;32.70;23.90;;;;;;;21.10;85.40;101267.00;685030;28;1190;-81
2023/07/10 00:32:12;;;;;;;31.58;23.88;;;;;;;21.18;85.49;101282.00;684284;28;989;-80
2023/07/10 00:32:33;;;;;;;32.83;24.55;;;;;;;21.12;85.51;101268.78;688734;28;1379;-81
2023/07/10 00:32:54;;;;;;;29.90;24.30;;;;;;;21.15;85.41;101269.63;685328;28;1492;-80
2023/07/10 00:33:18;;;;;;;28.75;23.55;;;;;;;21.09;85.28;101256.44;682558;28;1449;-80
2023/07/10 00:33:38;;;;;;;29.02;23.75;;;;;;;21.15;85.39;101268.75;682859;28;1169;-81
2023/07/10 00:33:59;;;;;;;29.15;24.13;;;;;;;21.10;85.34;101263.50;677547;29;1043;-81
2023/07/10 00:34:25;;;;;;;29.70;24.60;;;;;;;21.06;85.77;101257.34;687823;28;1287;-81
2023/07/10 00:34:45;;;;;;;30.90;24.10;;;;;;;21.05;85.42;101258.22;690983;28;1421;-81
2023/07/10 00:35:06;;;;;;;30.30;24.27;;;;;;;21.06;85.57;101264.41;682643;28;1120;-81
2023/07/10 00:35:27;;;;;;;31.20;24.87;;;;;;;21.12;85.61;101274.97;685188;28;1269;-81
2023/07/10 00:35:48;;;;;;;31.25;24.92;;;;;;;21.07;85.57;101268.81;682197;29;1321;-80
2023/07/10 00:36:29;;;;;;;32.87;24.77;;;;;;;21.10;85.74;101264.34;682701;29;1136;-81
2023/07/10 00:36:51;;;;;;;32.60;23.45;;;;;;;21.04;85.67;101251.16;688060;28;1262;-79
2023/07/10 00:37:11;;;;;;;31.40;23.85;;;;;;;21.04;85.65;101248.50;684896;28;1145;-81
2023/07/10 00:37:32;;;;;;;32.55;24.17;;;;;;;21.04;85.53;101251.16;687661;28;1202;-81
2023/07/10 00:38:09;;;;;;;31.63;24.50;;;;;;;21.03;85.72;101248.53;685412;28;1076;-81
2023/07/10 00:38:31;;;;;;;32.63;24.40;;;;;;;20.98;85.49;101243.25;685309;28;1257;-80
2023/07/10 00:38:51;;;;;;;35.30;24.80;;;;;;;20.99;85.44;101242.34;677503;28;1266;-81
2023/07/10 00:39:24;;;;;;;35.38;25.17;;;;;;;21.08;85.55;101258.19;684377;28;1372;-81
2023/07/10 00:39:45;;;;;;;33.70;25.13;;;;;;;20.99;85.71;101247.66;693763;28;1131;-81
2023/07/10 00:40:18;;;;;;;32.38;25.15;;;;;;;21.04;85.59;101256.47;690690;28;1095;-81
2023/07/10 00:40:38;;;;;;;32.75;24.58;;;;;;;20.99;85.66;101247.66;682925;29;946;-81
2023/07/10 00:41:01;;;;;;;34.47;24.52;;;;;;;20.96;85.66;101239.72;680116;29;966;-81
2023/07/10 00:41:24;;;;;;;34.42;24.42;;;;;;;21.03;85.60;101256.47;682657;29;1117;-80
2023/07/10 00:41:49;;;;;;;32.58;24.33;;;;;;;21.01;85.50;101261.78;682854;28;1222;-80
2023/07/10 00:42:20;;;;;;;29.73;24.02;;;;;;;21.00;85.68;101251.19;682482;28;1287;-80
2023/07/10 00:42:41;;;;;;;29.63;23.88;;;;;;;20.93;85.56;101242.41;688050;28;1262;-79
2023/07/10 00:43:22;;;;;;;30.67;24.52;;;;;;;20.92;85.73;101243.28;688101;28;1173;-80
2023/07/10 00:43:51;;;;;;;33.53;24.85;;;;;;;20.93;85.78;101245.94;693738;28;1080;-81
2023/07/10 00:44:13;;;;;;;34.78;24.75;;;;;;;20.97;85.66;101249.44;680707;28;1309;-81
2023/07/10 00:44:50;;;;;;;36.15;24.75;;;;;;;21.00;85.60;101253.81;680264;29;1321;-81
2023/07/10 00:45:14;;;;;;;40.80;24.55;;;;;;;20.95;85.47;101243.25;680041;29;1116;-80
2023/07/10 00:45:35;;;;;;;37.42;24.70;;;;;;;20.93;85.33;101243.28;682488;29;817;-81
2023/07/10 00:46:03;;;;;;;36.15;25.60;;;;;;;20.90;85.35;101242.44;685893;28;1366;-81
2023/07/10 00:46:34;;;;;;;32.20;25.80;;;;;;;20.91;85.42;101239.75;685153;28;922;-81
2023/07/10 00:47:05;;;;;;;30.10;24.77;;;;;;;20.88;85.35;101245.09;688192;28;1076;-80
2023/07/10 00:48:08;;;;;;;28.00;23.65;;;;;;;20.88;85.53;101247.75;685172;28;1258;-80
2023/07/10 00:48:46;;;;;;;34.65;25.60;;;;;;;20.86;85.23;101249.53;677779;29;1110;-81
2023/07/10 00:49:19;;;;;;;31.85;25.05;;;;;;;20.93;85.47;101259.22;679800;29;1300;-80
2023/07/10 00:49:58;;;;;;;29.85;23.60;;;;;;;20.86;85.53;101251.28;681965;29;1175;-81
2023/07/10 00:50:41;;;;;;;30.85;24.30;;;;;;;20.95;85.29;101267.13;679812;28;983;-80
2023/07/10 00:51:10;;;;;;;31.02;24.33;;;;;;;20.86;85.43;101246.88;682536;29;1272;-81
2023/07/10 00:51:38;;;;;;;31.20;24.67;;;;;;;20.90;85.33;101255.69;682612;29;976;-80
2023/07/10 00:52:08;;;;;;;31.92;23.70;;;;;;;20.85;85.16;101245.13;682724;28;1231;-81
2023/07/10 00:52:35;;;;;;;33.42;24.45;;;;;;;20.92;85.50;101268.06;685474;28;1010;-81
2023/07/10 00:52:59;;;;;;;35.17;26.13;;;;;;;20.90;85.26;101266.31;677639;29;1138;-81
2023/07/10 00:53:29;;;;;;;33.78;25.20;;;;;;;20.88;85.35;101262.75;685674;28;1240;-80
2023/07/10 00:53:52;;;;;;;31.27;24.13;;;;;;;20.92;85.32;101268.06;683032;29;1144;-81
2023/07/10 00:54:24;;;;;;;31.38;23.85;;;;;;;20.92;85.34;101268.06;685358;28;1140;-80
2023/07/10 00:54:48;;;;;;;32.38;24.23;;;;;;;20.89;85.11;101257.47;689338;28;842;-80
2023/07/10 00:55:22;;;;;;;33.70;24.70;;;;;;;20.89;85.03;101252.16;689916;28;1084;-81
2023/07/10 00:55:45;;;;;;;32.47;24.15;;;;;;;20.96;85.14;101269.78;684962;28;1316;-81
2023/07/10 00:56:13;;;;;;;32.65;23.92;;;;;;;20.90;85.08;101258.34;680015;29;1345;-81
2023/07/10 00:56:40;;;;;;;33.88;24.20;;;;;;;20.94;84.87;101266.28;683044;29;740;-81
2023/07/10 00:57:04;;;;;;;33.00;24.98;;;;;;;20.88;84.91;101247.75;685247;28;1498;-80
2023/07/10 00:57:35;;;;;;;32.42;25.38;;;;;;;20.94;85.06;101268.03;687957;28;1032;-81
2023/07/10 00:58:20;;;;;;;32.47;24.58;;;;;;;20.94;85.14;101270.69;679994;28;1361;-81
2023/07/10 00:58:44;;;;;;;32.95;24.80;;;;;;;20.88;85.15;101260.09;687767;28;1141;-81
2023/07/10 00:59:41;;;;;;;35.78;25.10;;;;;;;20.94;85.34;101268.03;687973;28;1064;-80
2023/07/10 01:00:21;;;;;;;34.45;24.98;;;;;;;20.86;85.22;101252.19;690344;28;1476;-80
2023/07/10 01:01:01;;;;;;;35.38;24.52;;;;;;;20.93;85.39;101268.94;688099;28;937;-81
2023/07/10 01:01:26;;;;;;;34.53;24.50;;;;;;;20.88;85.17;101262.75;687642;28;922;-80
2023/07/10 01:02:12;;;;;;;34.08;24.67;;;;;;;21.01;85.30;101285.66;688622;28;780;-81
2023/07/10 01:02:33;;;;;;;36.67;24.95;;;;;;;20.89;85.35;101256.59;688094;28;1041;-80
2023/07/10 01:02:53;;;;;;;33.50;25.05;;;;;;;20.96;85.41;101264.47;685248;28;1034;-80
2023/07/10 01:03:14;;;;;;;31.95;24.58;;;;;;;20.87;85.11;101255.69;686496;28;1072;-80
2023/07/10 01:03:37;;;;;;;32.97;24.23;;;;;;;20.95;85.23;101272.44;685634;28;965;-80
2023/07/10 01:03:58;;;;;;;33.67;24.35;;;;;;;20.92;85.20;101267.16;682653;28;1902;-80
2023/07/10 01:04:19;;;;;;;32.00;24.23;;;;;;;20.90;85.13;101264.53;685335;28;1307;-80
2023/07/10 01:04:42;;;;;;;32.90;24.55;;;;;;;20.90;85.40;101264.53;688305;28;816;-81
2023/07/10 01:05:04;;;;;;;34.10;24.90;;;;;;;20.86;85.38;101264.56;685251;28;1135;-80
2023/07/10 01:05:27;;;;;;;35.80;25.20;;;;;;;20.80;85.35;101253.13;684967;28;1096;-80
2023/07/10 01:05:48;;;;;;;34.72;25.25;;;;;;;20.80;85.44;101258.44;679640;29;1085;-80
2023/07/10 01:06:32;;;;;;;33.78;24.45;;;;;;;20.89;85.56;101259.25;682740;29;740;-80
2023/07/10 01:06:53;;;;;;;32.45;24.75;;;;;;;20.90;85.28;101267.16;686390;28;964;-81
2023/07/10 01:07:16;;;;;;;33.28;25.27;;;;;;;21.03;85.46;101286.53;690383;28;1270;-80
2023/07/10 01:07:43;;;;;;;34.33;25.40;;;;;;;21.03;85.14;101275.91;685430;28;1132;-80
2023/07/10 01:08:04;;;;;;;33.90;24.58;;;;;;;20.96;85.19;101268.88;685402;28;1340;-81
2023/07/10 01:08:27;;;;;;;31.58;25.08;;;;;;;21.02;84.79;101268.84;687942;28;1110;-80
2023/07/10 01:08:52;;;;;;;31.58;25.73;;;;;;;20.95;85.12;101264.47;685385;28;1142;-81
2023/07/10 01:09:13;;;;;;;33.80;25.90;;;;;;;21.03;84.91;101269.75;687674;28;1166;-80
2023/07/10 01:09:35;;;;;;;33.08;26.27;;;;;;;20.97;85.10;101262.72;687977;28;1238;-80
2023/07/10 01:10:03;;;;;;;31.95;26.10;;;;;;;20.96;84.96;101264.47;685294;28;1136;-81
2023/07/10 01:10:24;;;;;;;32.70;26.08;;;;;;;21.01;85.06;101272.41;682409;28;998;-80
2023/07/10 01:10:44;;;;;;;33.35;25.73;;;;;;;20.90;85.03;101261.00;685566;28;883;-80
2023/07/10 01:11:05;;;;;;;34.38;25.80;;;;;;;20.98;85.24;101277.75;682173;29;1349;-80
2023/07/10 01:11:26;;;;;;;35.47;26.70;;;;;;;20.96;85.01;101272.44;679883;29;1074;-80
2023/07/10 01:11:47;;;;;;;33.95;26.10;;;;;;;20.98;85.13;101275.09;683533;28;1220;-80
2023/07/10 01:12:08;;;;;;;35.55;25.70;;;;;;;21.09;84.95;101283.84;688012;28;957;-80
2023/07/10 01:12:31;;;;;;;35.30;25.75;;;;;;;21.01;84.97;101274.19;685370;28;1009;-79
2023/07/10 01:12:51;;;;;;;38.97;26.85;;;;;;;21.08;84.86;101286.50;682734;28;1128;-80
2023/07/10 01:13:12;;;;;;;34.67;26.25;;;;;;;21.02;84.85;101279.47;682536;28;1384;-80
2023/07/10 01:13:37;;;;;;;34.25;26.23;;;;;;;20.99;84.92;101262.69;682974;28;1285;-80
2023/07/10 01:14:00;;;;;;;33.53;26.40;;;;;;;21.06;84.79;101280.31;682747;29;1116;-79
2023/07/10 01:14:22;;;;;;;35.25;26.70;;;;;;;21.10;84.76;101288.25;684691;28;1628;-80
2023/07/10 01:14:43;;;;;;;34.55;26.50;;;;;;;21.05;84.83;101275.91;685512;28;835;-80
2023/07/10 01:15:06;;;;;;;36.22;26.50;;;;;;;21.08;85.04;101290.03;682265;28;1288;-80
2023/07/10 01:15:26;;;;;;;37.42;26.40;;;;;;;21.04;84.76;101275.06;682336;29;1015;-81
2023/07/10 01:15:48;;;;;;;40.38;27.67;;;;;;;21.08;84.75;101278.53;682213;29;829;-80
2023/07/10 01:16:10;;;;;;;38.22;27.38;;;;;;;21.04;84.83;101274.16;687817;28;1243;-80
2023/07/10 01:16:31;;;;;;;39.10;27.85;;;;;;;21.13;84.56;101290.00;687824;28;1810;-80
2023/07/10 01:16:52;;;;;;;38.45;28.27;;;;;;;21.07;84.67;101288.28;687909;28;1308;-79
2023/07/10 01:17:13;;;;;;;39.03;29.15;;;;;;;21.02;84.65;101282.13;682429;29;1118;-79
2023/07/10 01:17:34;;;;;;;39.33;29.20;;;;;;;21.03;84.60;101297.13;683005;28;1239;-80
2023/07/10 01:17:55;;;;;;;40.85;29.08;;;;;;;20.97;84.82;101281.28;688075;28;968;-81
2023/07/10 01:18:18;;;;;;;42.75;29.40;;;;;;;20.99;84.96;101278.59;679803;28;1352;-80
2023/07/10 01:18:41;;;;;;;44.05;30.02;;;;;;;21.04;84.90;101285.66;682882;29;873;-80
2023/07/10 01:19:06;;;;;;;44.13;29.95;;;;;;;20.94;84.86;101266.28;685252;28;1116;-81
2023/07/10 01:19:29;;;;;;;41.78;29.00;;;;;;;20.99;84.85;101274.19;687856;28;1233;-80
2023/07/10 01:19:53;;;;;;;37.60;28.27;;;;;;;21.02;84.54;101274.16;688149;28;1116;-79
2023/07/10 01:20:34;;;;;;;37.40;28.60;;;;;;;21.14;84.41;101288.25;682326;28;1082;-80
2023/07/10 01:21:06;;;;;;;41.53;29.90;;;;;;;21.12;84.61;101288.25;682462;28;1454;-80
2023/07/10 01:21:32;;;;;;;41.58;29.33;;;;;;;21.05;84.45;101289.19;689470;28;1032;-80
2023/07/10 01:21:52;;;;;;;40.85;29.95;;;;;;;21.07;84.65;101293.59;685318;28;1079;-80
2023/07/10 01:22:15;;;;;;;41.97;31.00;;;;;;;20.94;84.70;101278.63;682758;28;1237;-80
2023/07/10 01:22:36;;;;;;;42.30;31.00;;;;;;;20.97;84.79;101275.97;682887;29;855;-80
2023/07/10 01:22:56;;;;;;;41.85;30.75;;;;;;;20.95;84.91;101277.75;690722;28;1104;-80
2023/07/10 01:23:18;;;;;;;46.30;30.60;;;;;;;21.03;84.83;101291.84;687691;28;956;-80
2023/07/10 01:23:39;;;;;;;47.92;31.02;;;;;;;20.99;84.98;101284.81;690857;28;1377;-80
2023/07/10 01:24:03;;;;;;;48.20;31.65;;;;;;;21.03;84.82;101291.84;688386;28;1906;-80
2023/07/10 01:24:24;;;;;;;44.47;32.58;;;;;;;20.99;84.90;101281.25;687621;28;1222;-80
2023/07/10 01:24:52;;;;;;;45.25;32.85;;;;;;;20.93;84.82;101269.81;685303;28;1317;-79
2023/07/10 01:25:13;;;;;;;47.85;32.20;;;;;;;20.97;84.88;101283.94;682288;28;1068;-80
2023/07/10 01:25:48;;;;;;;49.58;32.63;;;;;;;20.96;84.79;101284.81;679683;28;1294;-80
2023/07/10 01:26:09;;;;;;;46.53;32.28;;;;;;;20.91;84.81;101271.56;685212;28;1013;-80
2023/07/10 01:26:31;;;;;;;42.03;31.17;;;;;;;21.04;84.99;101290.97;682549;28;1549;-80
2023/07/10 01:26:55;;;;;;;43.88;31.15;;;;;;;20.97;84.59;101278.63;682604;29;1276;-80
2023/07/10 01:27:16;;;;;;;43.42;30.92;;;;;;;21.02;84.79;101289.22;679812;28;1129;-80
2023/07/10 01:27:37;;;;;;;43.35;30.60;;;;;;;20.99;84.80;101284.81;685389;28;1520;-80
2023/07/10 01:27:58;;;;;;;42.53;31.63;;;;;;;20.94;84.72;101276.00;679977;29;994;-80
2023/07/10 01:28:20;;;;;;;44.55;33.03;;;;;;;21.07;84.65;101292.69;679862;29;1092;-79
2023/07/10 01:28:42;;;;;;;45.67;33.50;;;;;;;21.03;84.46;101285.66;685480;28;878;-80
2023/07/10 01:29:03;;;;;;;45.38;33.25;;;;;;;21.06;84.47;101286.53;685532;28;1352;-79
2023/07/10 01:29:30;;;;;;;48.07;32.60;;;;;;;21.07;84.51;101288.28;685072;28;1178;-79
2023/07/10 01:30:26;;;;;;;46.80;32.58;;;;;;;20.99;84.60;101290.09;685337;28;1109;-80
2023/07/10 01:30:50;;;;;;;45.42;33.90;;;;;;;20.94;84.53;101278.63;682879;28;1179;-80
2023/07/10 01:31:14;;;;;;;44.70;33.03;;;;;;;20.92;84.62;101281.31;684869;28;1044;-80
2023/07/10 01:31:35;;;;;;;42.50;32.13;;;;;;;21.05;84.67;101303.34;678055;28;1284;-79
2023/07/10 01:31:57;;;;;;;42.50;32.20;;;;;;;21.00;84.62;101290.97;680109;29;1096;-81
2023/07/10 01:32:21;;;;;;;44.50;31.80;;;;;;;21.05;84.59;101295.38;679678;29;989;-80
2023/07/10 01:32:42;;;;;;;46.25;32.63;;;;;;;20.94;84.64;101283.94;677610;29;789;-79
2023/07/10 01:33:04;;;;;;;46.25;33.58;;;;;;;20.99;84.70;101294.53;682399;29;942;-80
2023/07/10 01:33:34;;;;;;;43.67;33.28;;;;;;;21.01;84.75;101300.72;687553;28;1371;-80
2023/07/10 01:33:59;;;;;;;44.67;33.60;;;;;;;21.06;84.55;101307.75;685244;28;1017;-79
2023/07/10 01:34:30;;;;;;;47.73;33.97;;;;;;;21.02;85.06;101294.53;683312;28;1065;-81
2023/07/10 01:34:55;;;;;;;46.60;32.65;;;;;;;21.07;84.72;101304.19;682607;29;1050;-80
2023/07/10 01:35:17;;;;;;;45.30;32.97;;;;;;;21.06;84.52;101297.13;682279;28;1384;-80
2023/07/10 01:35:42;;;;;;;47.80;33.15;;;;;;;21.07;84.65;101293.59;682198;28;832;-81
2023/07/10 01:36:06;;;;;;;45.55;32.90;;;;;;;21.04;84.56;101300.69;684957;28;1350;-79
2023/07/10 01:36:32;;;;;;;47.97;33.50;;;;;;;21.02;84.51;101295.38;689049;28;1171;-81
2023/07/10 01:36:54;;;;;;;50.50;34.00;;;;;;;21.06;84.56;101302.44;687992;28;1004;-79
2023/07/10 01:37:15;;;;;;;53.38;34.20;;;;;;;20.99;84.59;101289.22;685130;28;1467;-80
2023/07/10 01:37:36;;;;;;;50.05;33.80;;;;;;;21.01;84.69;101290.97;685513;28;760;-80
2023/07/10 01:37:56;;;;;;;47.55;33.65;;;;;;;21.03;84.46;101291.84;685244;28;1211;-80
2023/07/10 01:38:17;;;;;;;44.13;33.63;;;;;;;21.11;84.63;101299.75;686192;28;1285;-80
2023/07/10 01:38:44;;;;;;;44.30;33.33;;;;;;;21.14;84.41;101298.84;685416;28;1212;-80
2023/07/10 01:39:14;;;;;;;47.28;33.63;;;;;;;21.12;84.31;101287.34;682482;28;1677;-80
2023/07/10 01:39:42;;;;;;;49.85;33.92;;;;;;;21.17;84.61;101298.81;685536;28;1088;-80
2023/07/10 01:40:04;;;;;;;44.67;33.03;;;;;;;21.13;84.46;101291.78;687937;28;1238;-79
2023/07/10 01:40:35;;;;;;;45.00;33.05;;;;;;;21.12;84.37;101290.91;685040;28;1296;-80
2023/07/10 01:40:58;;;;;;;46.78;32.70;;;;;;;21.15;84.36;101290.00;685159;28;1266;-80
2023/07/10 01:41:38;;;;;;;46.70;34.28;;;;;;;21.12;84.31;101292.66;684423;28;1268;-80
2023/07/10 01:41:58;;;;;;;48.45;35.00;;;;;;;21.10;84.28;101293.56;687934;28;1008;-79
2023/07/10 01:42:19;;;;;;;47.30;34.38;;;;;;;21.10;84.08;101293.56;684801;28;1150;-80
2023/07/10 01:42:40;;;;;;;44.50;32.70;;;;;;;21.17;84.10;101304.13;682854;29;811;-80
2023/07/10 01:43:01;;;;;;;45.23;33.20;;;;;;;21.17;84.26;101301.47;682499;29;1097;-80
2023/07/10 01:43:22;;;;;;;45.92;33.50;;;;;;;21.16;84.03;101300.59;677044;29;1112;-79
2023/07/10 01:43:42;;;;;;;48.40;35.20;;;;;;;21.16;84.00;101291.75;685315;28;1266;-80
2023/07/10 01:44:26;;;;;;;46.72;34.03;;;;;;;21.23;83.92;101304.06;690031;28;1995;-80
2023/07/10 01:44:49;;;;;;;46.28;31.98;;;;;;;21.14;84.06;101290.91;687874;28;1109;-80
2023/07/10 01:45:14;;;;;;;46.60;31.55;;;;;;;21.23;84.02;101298.78;682283;28;1295;-80
2023/07/10 01:45:43;;;;;;;45.53;32.47;;;;;;;21.23;83.97;101301.44;679708;29;848;-80
2023/07/10 01:46:16;;;;;;;47.83;33.88;;;;;;;21.20;83.99;101286.41;679850;29;1279;-80
2023/07/10 01:46:37;;;;;;;48.30;33.67;;;;;;;21.20;83.88;101282.84;682883;28;1159;-80
2023/07/10 01:46:59;;;;;;;48.13;34.33;;;;;;;21.20;83.82;101282.84;690566;28;1262;-79
2023/07/10 01:47:21;;;;;;;45.22;34.33;;;;;;;21.28;83.63;101296.97;687810;28;1508;-80
2023/07/10 01:47:43;;;;;;;42.33;33.35;;;;;;;21.20;83.96;101285.50;682808;28;1169;-80
2023/07/10 01:48:04;;;;;;;43.43;32.83;;;;;;;21.23;83.81;101289.03;685150;28;1120;-79
2023/07/10 01:48:28;;;;;;;44.80;32.60;;;;;;;21.27;83.77;101286.34;690397;28;996;-80
2023/07/10 01:48:52;;;;;;;44.50;32.15;;;;;;;21.26;83.78;101287.25;690802;28;1138;-80
2023/07/10 01:49:14;;;;;;;42.53;31.33;;;;;;;21.20;83.80;101283.75;690162;28;1470;-80
2023/07/10 01:49:41;;;;;;;44.70;31.70;;;;;;;21.25;83.97;101286.38;685468;28;816;-79
2023/07/10 01:50:02;;;;;;;48.40;31.92;;;;;;;21.31;83.83;101296.94;677126;29;1367;-80
2023/07/10 01:50:23;;;;;;;51.13;32.35;;;;;;;21.23;83.75;101278.41;679791;29;1152;-80
2023/07/10 01:50:44;;;;;;;49.13;32.90;;;;;;;21.27;83.74;101281.03;680128;29;844;-80
2023/07/10 01:51:04;;;;;;;49.13;33.08;;;;;;;21.28;83.59;101291.66;679424;29;1080;-80
2023/07/10 01:51:26;;;;;;;46.23;32.60;;;;;;;21.30;83.64;101294.28;684983;28;1255;-80
2023/07/10 01:51:47;;;;;;;45.10;31.85;;;;;;;21.16;83.79;101274.06;680079;29;1009;-79
2023/07/10 01:52:10;;;;;;;45.38;32.50;;;;;;;21.31;83.86;101290.72;682536;28;1428;-80
2023/07/10 01:52:32;;;;;;;48.75;33.65;;;;;;;21.27;83.60;101287.22;682219;29;1235;-80
2023/07/10 01:52:52;;;;;;;51.38;33.53;;;;;;;21.23;83.61;101277.53;687820;28;1360;-80
2023/07/10 01:53:13;;;;;;;48.28;32.45;;;;;;;21.24;83.82;101281.94;683045;28;1312;-80
2023/07/10 01:53:34;;;;;;;46.88;32.38;;;;;;;21.21;83.71;101284.66;685389;28;1365;-80
2023/07/10 01:54:00;;;;;;;44.40;32.47;;;;;;;21.24;83.94;101281.94;680168;29;982;-79
2023/07/10 01:54:21;;;;;;;44.53;33.03;;;;;;;21.24;83.95;101287.25;684826;28;1448;-80